Time;durP1;ratioP1;P1;durP2;ratioP2;P2;SDS_P1;SDS_P2;PMS_P1;PMS_P2;Temp;Humidity;BMP_temperature;BMP_pressure;BME280_temperature;BME280_humidity;BME280_pressure;Samples;Min_cycle;Max_cycle;Signal;HPM_P1;HPM_P2
2022/07/10 00:01:49;;;;;;;0.10;0.10;;;;;;;;;;1871086;75;26284;-53
2022/07/10 00:04:18;;;;;;;0.17;0.17;;;;;;;;;;1867016;76;26323;-51
2022/07/10 00:06:46;;;;;;;0.20;0.20;;;;;;;;;;1874413;76;26293;-54
2022/07/10 00:09:14;;;;;;;0.20;0.20;;;;;;;;;;1866244;75;26835;-49
2022/07/10 00:11:44;;;;;;;0.10;0.10;;;;;;;;;;1881034;75;26282;-48
2022/07/10 00:14:11;;;;;;;0.08;0.08;;;;;;;;;;1873150;75;26802;-51
2022/07/10 00:16:39;;;;;;;1.25;0.30;;;;;;;;;;1867551;76;26772;-53
2022/07/10 00:19:06;;;;;;;0.20;0.20;;;;;;;;;;1878889;75;26712;-50
2022/07/10 00:21:33;;;;;;;0.35;0.20;;;;;;;;;;1870902;75;26268;-49
2022/07/10 00:24:01;;;;;;;0.10;0.10;;;;;;;;;;1872638;75;26637;-49
2022/07/10 00:26:28;;;;;;;0.13;0.13;;;;;;;;;;1872101;75;26253;-50
2022/07/10 00:28:55;;;;;;;0.20;0.20;;;;;;;;;;1797649;78;26275;-52
2022/07/10 00:31:23;;;;;;;0.62;0.20;;;;;;;;;;1809836;78;26284;-51
2022/07/10 00:33:51;;;;;;;0.10;0.10;;;;;;;;;;1834440;75;26328;-59
2022/07/10 00:36:18;;;;;;;0.20;0.20;;;;;;;;;;1876169;75;26837;-49
2022/07/10 00:38:45;;;;;;;0.20;0.20;;;;;;;;;;1873199;76;26680;-50
2022/07/10 00:41:13;;;;;;;0.20;0.20;;;;;;;;;;1864044;75;26275;-50
2022/07/10 00:43:57;;;;;;;0.10;0.10;;;;;;;;;;1875922;76;26660;-53
2022/07/10 00:46:26;;;;;;;0.10;0.10;;;;;;;;;;1877892;76;26277;-55
2022/07/10 00:48:54;;;;;;;0.35;0.17;;;;;;;;;;1885383;76;26267;-59
2022/07/10 00:51:23;;;;;;;0.15;0.10;;;;;;;;;;1866943;75;26704;-52
2022/07/10 00:53:51;;;;;;;0.10;0.10;;;;;;;;;;1866967;75;26335;-54
2022/07/10 00:56:19;;;;;;;0.10;0.10;;;;;;;;;;1860066;76;26249;-47
2022/07/10 00:58:47;;;;;;;0.10;0.10;;;;;;;;;;1833440;77;26382;-51
2022/07/10 01:01:14;;;;;;;0.30;0.30;;;;;;;;;;1832263;77;26773;-49
2022/07/10 01:03:42;;;;;;;0.20;0.20;;;;;;;;;;1877696;75;26235;-54
2022/07/10 01:06:09;;;;;;;0.20;0.20;;;;;;;;;;1869276;75;26254;-48
2022/07/10 01:08:36;;;;;;;0.10;0.10;;;;;;;;;;1864343;75;26248;-50
2022/07/10 01:11:04;;;;;;;0.10;0.10;;;;;;;;;;1864367;75;26915;-50
2022/07/10 01:13:31;;;;;;;0.10;0.10;;;;;;;;;;1863649;75;26251;-48
2022/07/10 01:15:58;;;;;;;0.15;0.13;;;;;;;;;;1861492;75;26256;-48
2022/07/10 01:18:26;;;;;;;0.20;0.20;;;;;;;;;;1870720;75;26325;-48
2022/07/10 01:20:54;;;;;;;0.20;0.20;;;;;;;;;;1851148;77;26267;-50
2022/07/10 01:23:21;;;;;;;0.10;0.10;;;;;;;;;;1865638;75;26277;-55
2022/07/10 01:25:50;;;;;;;0.10;0.10;;;;;;;;;;1864400;75;26755;-48
2022/07/10 01:28:17;;;;;;;0.10;0.10;;;;;;;;;;1877421;75;26365;-58
2022/07/10 01:30:45;;;;;;;0.10;0.10;;;;;;;;;;1876125;76;26693;-52
2022/07/10 01:33:13;;;;;;;0.13;0.13;;;;;;;;;;1872070;75;26386;-58
2022/07/10 01:35:41;;;;;;;0.10;0.10;;;;;;;;;;1862224;76;27493;-54
2022/07/10 01:38:08;;;;;;;0.10;0.10;;;;;;;;;;1875930;76;26378;-48
2022/07/10 01:40:35;;;;;;;0.65;0.20;;;;;;;;;;1883980;75;27352;-49
2022/07/10 01:43:03;;;;;;;0.10;0.10;;;;;;;;;;1852880;75;26845;-48
2022/07/10 01:45:30;;;;;;;0.53;0.10;;;;;;;;;;1859971;75;26292;-49
2022/07/10 01:47:57;;;;;;;0.00;0.00;;;;;;;;;;1876795;75;26248;-50
2022/07/10 01:50:26;;;;;;;0.10;0.10;;;;;;;;;;1876524;75;26279;-48
2022/07/10 01:52:53;;;;;;;0.10;0.10;;;;;;;;;;1868643;75;26276;-50
2022/07/10 01:55:21;;;;;;;0.20;0.20;;;;;;;;;;1856019;75;26260;-51
2022/07/10 01:57:48;;;;;;;0.10;0.10;;;;;;;;;;1861429;76;26279;-54
2022/07/10 02:00:15;;;;;;;0.10;0.10;;;;;;;;;;1852213;76;26253;-48
2022/07/10 02:04:40;;;;;;;0.10;0.10;;;;;;;;;;1855764;75;26246;-48
2022/07/10 02:05:11;;;;;;;0.00;0.00;;;;;;;;;;1854890;75;26335;-49
2022/07/10 02:07:39;;;;;;;0.17;0.17;;;;;;;;;;1863827;75;26257;-54
2022/07/10 02:10:06;;;;;;;0.10;0.10;;;;;;;;;;1867575;76;26335;-49
2022/07/10 02:12:33;;;;;;;0.10;0.10;;;;;;;;;;1862268;76;26254;-50
2022/07/10 02:15:01;;;;;;;0.10;0.10;;;;;;;;;;1861439;75;26794;-48
2022/07/10 02:17:29;;;;;;;0.08;0.08;;;;;;;;;;1855733;75;26200;-49
2022/07/10 02:19:56;;;;;;;0.20;0.10;;;;;;;;;;1874575;76;26666;-56
2022/07/10 02:22:23;;;;;;;0.85;0.10;;;;;;;;;;1860177;75;26354;-49
2022/07/10 02:24:50;;;;;;;0.10;0.10;;;;;;;;;;1856116;75;26264;-53
2022/07/10 02:27:18;;;;;;;0.10;0.10;;;;;;;;;;1872377;75;26337;-49
2022/07/10 02:29:45;;;;;;;0.15;0.15;;;;;;;;;;1859825;76;26357;-57
2022/07/10 02:32:12;;;;;;;0.00;0.00;;;;;;;;;;1859598;75;26230;-52
2022/07/10 02:34:39;;;;;;;0.00;0.00;;;;;;;;;;1862256;75;26261;-51
2022/07/10 02:37:07;;;;;;;0.08;0.08;;;;;;;;;;1858988;75;26365;-50
2022/07/10 02:39:34;;;;;;;0.10;0.10;;;;;;;;;;1860601;75;26385;-54
2022/07/10 02:42:01;;;;;;;0.00;0.00;;;;;;;;;;1860094;75;26773;-57
2022/07/10 02:44:29;;;;;;;0.03;0.03;;;;;;;;;;1870362;75;26275;-49
2022/07/10 02:46:56;;;;;;;0.10;0.10;;;;;;;;;;1861097;75;26299;-53
2022/07/10 02:49:24;;;;;;;0.10;0.10;;;;;;;;;;1866831;75;26214;-50
2022/07/10 02:51:51;;;;;;;0.00;0.00;;;;;;;;;;1873747;75;26303;-52
2022/07/10 02:54:18;;;;;;;0.70;0.10;;;;;;;;;;1863095;75;26483;-49
2022/07/10 02:56:45;;;;;;;0.00;0.00;;;;;;;;;;1868108;75;26315;-48
2022/07/10 02:59:14;;;;;;;0.20;0.20;;;;;;;;;;1865064;75;26372;-53
2022/07/10 03:01:41;;;;;;;0.10;0.10;;;;;;;;;;1860794;76;26245;-48
2022/07/10 03:04:08;;;;;;;0.00;0.00;;;;;;;;;;1865653;75;26246;-52
2022/07/10 03:06:35;;;;;;;0.15;0.10;;;;;;;;;;1871903;76;26293;-50
2022/07/10 03:09:03;;;;;;;0.00;0.00;;;;;;;;;;1866643;75;26230;-49
2022/07/10 03:11:30;;;;;;;0.10;0.10;;;;;;;;;;1867644;75;26282;-48
2022/07/10 03:13:58;;;;;;;0.23;0.00;;;;;;;;;;1866600;75;26707;-50
2022/07/10 03:16:25;;;;;;;1.85;0.10;;;;;;;;;;1858508;76;26289;-53
2022/07/10 03:18:52;;;;;;;0.00;0.00;;;;;;;;;;1868033;76;26376;-50
2022/07/10 03:21:19;;;;;;;0.00;0.00;;;;;;;;;;1861110;76;26304;-56
2022/07/10 03:23:47;;;;;;;0.00;0.00;;;;;;;;;;1866208;76;26305;-54
2022/07/10 03:26:14;;;;;;;0.10;0.10;;;;;;;;;;1866457;76;26241;-49
2022/07/10 03:28:41;;;;;;;0.23;0.10;;;;;;;;;;1867869;75;26382;-50
2022/07/10 03:31:09;;;;;;;0.05;0.05;;;;;;;;;;1857843;75;26183;-57
2022/07/10 03:33:36;;;;;;;0.00;0.00;;;;;;;;;;1857745;75;26345;-53
2022/07/10 03:36:04;;;;;;;0.10;0.10;;;;;;;;;;1858456;75;26726;-50
2022/07/10 03:38:32;;;;;;;0.13;0.13;;;;;;;;;;1862596;75;26851;-51
2022/07/10 03:40:59;;;;;;;0.00;0.00;;;;;;;;;;1877886;75;26235;-51
2022/07/10 03:43:26;;;;;;;0.10;0.10;;;;;;;;;;1875719;75;26302;-49
2022/07/10 03:45:54;;;;;;;0.05;0.05;;;;;;;;;;1860756;75;26243;-50
2022/07/10 03:48:21;;;;;;;0.00;0.00;;;;;;;;;;1860113;75;26283;-49
2022/07/10 03:50:50;;;;;;;0.10;0.10;;;;;;;;;;1861064;75;26266;-49
2022/07/10 03:53:18;;;;;;;0.42;0.10;;;;;;;;;;1870858;75;26274;-53
2022/07/10 03:55:45;;;;;;;0.42;0.08;;;;;;;;;;1852761;75;26318;-51
2022/07/10 03:58:13;;;;;;;0.10;0.10;;;;;;;;;;1880374;75;26348;-49
2022/07/10 04:00:42;;;;;;;1.65;0.15;;;;;;;;;;1866799;75;26336;-49
2022/07/10 04:03:09;;;;;;;0.00;0.00;;;;;;;;;;1860248;75;26340;-52
2022/07/10 04:05:36;;;;;;;0.00;0.00;;;;;;;;;;1864090;75;26573;-52
2022/07/10 04:08:04;;;;;;;0.10;0.10;;;;;;;;;;1861665;76;26758;-53
2022/07/10 04:10:32;;;;;;;0.20;0.20;;;;;;;;;;1863615;75;26513;-51
2022/07/10 04:13:00;;;;;;;0.10;0.10;;;;;;;;;;1858065;75;26274;-49
2022/07/10 04:15:27;;;;;;;0.05;0.05;;;;;;;;;;1862141;75;26241;-50
2022/07/10 04:17:54;;;;;;;0.00;0.00;;;;;;;;;;1855816;76;26273;-50
2022/07/10 04:20:23;;;;;;;0.10;0.10;;;;;;;;;;1861817;75;26368;-49
2022/07/10 04:22:50;;;;;;;0.30;0.10;;;;;;;;;;1862113;76;26323;-50
2022/07/10 04:25:17;;;;;;;2.65;0.10;;;;;;;;;;1863554;75;26331;-48
2022/07/10 04:27:44;;;;;;;0.10;0.10;;;;;;;;;;1857139;76;26254;-51
2022/07/10 04:30:12;;;;;;;0.00;0.00;;;;;;;;;;1860899;75;26269;-53
2022/07/10 04:32:39;;;;;;;0.03;0.03;;;;;;;;;;1854977;76;26355;-55
2022/07/10 04:35:08;;;;;;;0.00;0.00;;;;;;;;;;1862224;76;26347;-56
2022/07/10 04:37:35;;;;;;;0.00;0.00;;;;;;;;;;1866522;75;26799;-49
2022/07/10 04:40:02;;;;;;;0.10;0.10;;;;;;;;;;1866852;75;26335;-48
2022/07/10 04:42:30;;;;;;;0.00;0.00;;;;;;;;;;1866057;76;26441;-48
2022/07/10 04:44:57;;;;;;;0.25;0.10;;;;;;;;;;1853511;75;26701;-56
2022/07/10 04:47:24;;;;;;;0.40;0.10;;;;;;;;;;1866077;75;26258;-49
2022/07/10 04:49:52;;;;;;;0.00;0.00;;;;;;;;;;1869420;76;26275;-58
2022/07/10 04:52:19;;;;;;;0.00;0.00;;;;;;;;;;1864286;75;26265;-52
2022/07/10 04:54:46;;;;;;;0.10;0.10;;;;;;;;;;1867273;76;26238;-52
2022/07/10 04:57:13;;;;;;;0.20;0.10;;;;;;;;;;1861312;75;26295;-50
2022/07/10 04:59:41;;;;;;;0.10;0.10;;;;;;;;;;1875725;75;26285;-50
2022/07/10 05:02:08;;;;;;;0.00;0.00;;;;;;;;;;1871181;76;26322;-48
2022/07/10 05:04:35;;;;;;;0.10;0.08;;;;;;;;;;1875754;75;26342;-49
2022/07/10 05:07:02;;;;;;;0.00;0.00;;;;;;;;;;1866850;76;26260;-56
2022/07/10 05:09:30;;;;;;;0.20;0.00;;;;;;;;;;1876714;75;26716;-57
2022/07/10 05:11:57;;;;;;;0.08;0.08;;;;;;;;;;1879809;75;26741;-52
2022/07/10 05:14:25;;;;;;;0.00;0.00;;;;;;;;;;1874557;76;26638;-50
2022/07/10 05:16:52;;;;;;;0.10;0.10;;;;;;;;;;1872277;76;26728;-48
2022/07/10 05:19:20;;;;;;;0.00;0.00;;;;;;;;;;1872748;76;26684;-48
2022/07/10 05:21:47;;;;;;;0.10;0.10;;;;;;;;;;1872689;75;26736;-53
2022/07/10 05:24:14;;;;;;;0.08;0.00;;;;;;;;;;1876428;76;26827;-48
2022/07/10 05:26:41;;;;;;;0.10;0.10;;;;;;;;;;1869331;75;26782;-49
2022/07/10 05:29:09;;;;;;;0.10;0.10;;;;;;;;;;1869904;75;26317;-50
2022/07/10 05:31:36;;;;;;;0.00;0.00;;;;;;;;;;1868857;75;26207;-54
2022/07/10 05:34:03;;;;;;;0.08;0.08;;;;;;;;;;1876726;75;26296;-50
2022/07/10 05:36:31;;;;;;;0.30;0.10;;;;;;;;;;1873365;75;26303;-48
2022/07/10 05:38:58;;;;;;;0.10;0.10;;;;;;;;;;1828022;77;26318;-54
2022/07/10 05:41:25;;;;;;;0.05;0.05;;;;;;;;;;1847439;77;26208;-48
2022/07/10 05:43:52;;;;;;;0.00;0.00;;;;;;;;;;1776320;79;26313;-50
2022/07/10 05:46:20;;;;;;;0.10;0.05;;;;;;;;;;1832390;77;26608;-49
2022/07/10 05:48:47;;;;;;;0.00;0.00;;;;;;;;;;1830629;77;26271;-49
2022/07/10 05:51:14;;;;;;;0.35;0.10;;;;;;;;;;1831470;77;26302;-57
2022/07/10 05:53:41;;;;;;;0.55;0.00;;;;;;;;;;1832343;77;26275;-50
2022/07/10 05:56:09;;;;;;;0.10;0.10;;;;;;;;;;1834654;77;26294;-52
2022/07/10 05:58:36;;;;;;;0.20;0.20;;;;;;;;;;1832879;77;26381;-52
2022/07/10 06:01:04;;;;;;;0.08;0.08;;;;;;;;;;1831791;77;26648;-49
2022/07/10 06:03:31;;;;;;;0.47;0.10;;;;;;;;;;1831279;77;26362;-49
2022/07/10 06:05:59;;;;;;;0.70;0.10;;;;;;;;;;1831680;77;26272;-55
2022/07/10 06:08:27;;;;;;;0.10;0.10;;;;;;;;;;1835116;77;26339;-51
2022/07/10 06:10:54;;;;;;;0.10;0.03;;;;;;;;;;1830365;77;26274;-48
2022/07/10 06:13:21;;;;;;;0.00;0.00;;;;;;;;;;1834621;77;26227;-54
2022/07/10 06:15:48;;;;;;;0.70;0.10;;;;;;;;;;1829900;77;26349;-53
2022/07/10 06:18:16;;;;;;;1.35;0.10;;;;;;;;;;1831350;77;26298;-48
2022/07/10 06:20:43;;;;;;;0.10;0.10;;;;;;;;;;1802370;78;26314;-54
2022/07/10 06:23:10;;;;;;;0.45;0.17;;;;;;;;;;1842628;77;26681;-49
2022/07/10 06:25:38;;;;;;;0.13;0.13;;;;;;;;;;1829991;77;26306;-54
2022/07/10 06:28:05;;;;;;;0.10;0.10;;;;;;;;;;1847919;77;26235;-51
2022/07/10 06:30:33;;;;;;;0.53;0.10;;;;;;;;;;1844904;77;26320;-57
2022/07/10 06:33:00;;;;;;;0.00;0.00;;;;;;;;;;1840815;77;26326;-49
2022/07/10 06:35:28;;;;;;;0.10;0.10;;;;;;;;;;1850274;77;26764;-48
2022/07/10 06:37:55;;;;;;;0.08;0.03;;;;;;;;;;1827980;77;26284;-52
2022/07/10 06:40:22;;;;;;;0.45;0.15;;;;;;;;;;1827795;77;26307;-48
2022/07/10 06:42:49;;;;;;;2.75;0.15;;;;;;;;;;1812467;78;26358;-51
2022/07/10 06:45:17;;;;;;;1.25;0.20;;;;;;;;;;1804611;78;26306;-52
2022/07/10 06:47:57;;;;;;;0.00;0.00;;;;;;;;;;1808787;78;26767;-48
2022/07/10 06:50:30;;;;;;;0.30;0.10;;;;;;;;;;1807574;78;26778;-53
2022/07/10 06:52:58;;;;;;;0.25;0.10;;;;;;;;;;1810574;78;26401;-55
2022/07/10 06:55:26;;;;;;;1.17;0.08;;;;;;;;;;1811035;78;26345;-51
2022/07/10 06:57:53;;;;;;;0.00;0.00;;;;;;;;;;1811564;78;26418;-51
2022/07/10 07:00:21;;;;;;;0.17;0.05;;;;;;;;;;1806448;78;26806;-54
2022/07/10 07:02:48;;;;;;;0.20;0.10;;;;;;;;;;1809179;79;26338;-48
2022/07/10 07:05:16;;;;;;;0.75;0.20;;;;;;;;;;1813059;78;26750;-49
2022/07/10 07:07:43;;;;;;;0.90;0.20;;;;;;;;;;1812705;78;26263;-50
2022/07/10 07:10:11;;;;;;;0.20;0.20;;;;;;;;;;1809479;78;26397;-59
2022/07/10 07:12:38;;;;;;;0.10;0.10;;;;;;;;;;1811176;78;26349;-48
2022/07/10 07:15:06;;;;;;;0.17;0.17;;;;;;;;;;1812071;79;26296;-50
2022/07/10 07:17:33;;;;;;;1.82;0.20;;;;;;;;;;1810039;79;26338;-52
2022/07/10 07:25:32;;;;;;;0.10;0.10;;;;;;;;;;1794569;79;26332;-51
2022/07/10 07:27:59;;;;;;;1.17;0.20;;;;;;;;;;1807971;78;26734;-48
2022/07/10 07:30:27;;;;;;;0.82;0.15;;;;;;;;;;1810478;79;26845;-49
2022/07/10 07:32:54;;;;;;;1.80;0.20;;;;;;;;;;1802569;79;26732;-50
2022/07/10 07:35:21;;;;;;;0.40;0.10;;;;;;;;;;1808608;78;26667;-50
2022/07/10 07:37:49;;;;;;;0.42;0.15;;;;;;;;;;1826644;76;26352;-53
2022/07/10 07:40:23;;;;;;;1.00;0.17;;;;;;;;;;1872097;75;26611;-57
2022/07/10 07:42:47;;;;;;;0.37;0.28;;;;;;;;;;1863501;76;26269;-50
2022/07/10 07:45:15;;;;;;;0.13;0.13;;;;;;;;;;1863049;75;26307;-50
2022/07/10 07:47:46;;;;;;;0.20;0.20;;;;;;;;;;1864585;76;26678;-54
2022/07/10 07:50:14;;;;;;;0.15;0.10;;;;;;;;;;1875826;75;26335;-58
2022/07/10 07:52:42;;;;;;;0.10;0.10;;;;;;;;;;1874814;76;27389;-49
2022/07/10 07:55:10;;;;;;;0.10;0.10;;;;;;;;;;1866226;76;26297;-48
2022/07/10 07:57:38;;;;;;;1.00;0.20;;;;;;;;;;1871082;76;26281;-51
2022/07/10 08:00:07;;;;;;;0.65;0.20;;;;;;;;;;1869844;76;26324;-52
2022/07/10 08:02:35;;;;;;;0.28;0.10;;;;;;;;;;1874705;75;26196;-47
2022/07/10 08:05:04;;;;;;;0.33;0.28;;;;;;;;;;1877117;76;26251;-48
2022/07/10 08:07:36;;;;;;;1.47;0.28;;;;;;;;;;1864502;76;26351;-48
2022/07/10 08:10:04;;;;;;;0.20;0.20;;;;;;;;;;1871548;76;26242;-50
2022/07/10 08:12:31;;;;;;;0.90;0.20;;;;;;;;;;1873105;75;26256;-51
2022/07/10 08:14:58;;;;;;;0.20;0.20;;;;;;;;;;1868833;76;26261;-52
2022/07/10 08:17:26;;;;;;;0.10;0.10;;;;;;;;;;1866852;75;26241;-55
2022/07/10 08:19:54;;;;;;;0.10;0.10;;;;;;;;;;1870137;76;26757;-51
2022/07/10 08:22:21;;;;;;;0.20;0.20;;;;;;;;;;1870465;76;26319;-51
2022/07/10 08:24:49;;;;;;;0.20;0.20;;;;;;;;;;1864785;76;26253;-59
2022/07/10 08:27:16;;;;;;;0.93;0.10;;;;;;;;;;1872008;75;26265;-52
2022/07/10 08:29:44;;;;;;;0.20;0.20;;;;;;;;;;1876185;76;26324;-51
2022/07/10 08:32:11;;;;;;;0.37;0.10;;;;;;;;;;1872480;76;26265;-50
2022/07/10 08:34:39;;;;;;;2.25;0.37;;;;;;;;;;1874948;76;26774;-48
2022/07/10 08:37:06;;;;;;;0.30;0.30;;;;;;;;;;1870934;76;26289;-49
2022/07/10 08:39:33;;;;;;;0.10;0.10;;;;;;;;;;1875505;76;26321;-51
2022/07/10 08:42:01;;;;;;;0.35;0.20;;;;;;;;;;1873120;76;26798;-52
2022/07/10 08:44:29;;;;;;;0.53;0.30;;;;;;;;;;1869560;75;26323;-49
2022/07/10 08:46:57;;;;;;;0.40;0.20;;;;;;;;;;1873748;75;25713;-59
2022/07/10 08:49:26;;;;;;;0.23;0.20;;;;;;;;;;1869398;76;26336;-55
2022/07/10 08:52:00;;;;;;;0.40;0.10;;;;;;;;;;1878095;76;26257;-54
2022/07/10 08:54:29;;;;;;;0.10;0.10;;;;;;;;;;1866106;75;26245;-52
2022/07/10 08:57:00;;;;;;;0.10;0.10;;;;;;;;;;1877423;75;26294;-54
2022/07/10 08:59:28;;;;;;;0.10;0.10;;;;;;;;;;1875567;75;26258;-51
2022/07/10 09:01:55;;;;;;;0.10;0.10;;;;;;;;;;1872793;75;26316;-47
2022/07/10 09:04:24;;;;;;;0.25;0.25;;;;;;;;;;1870087;75;26257;-50
2022/07/10 09:06:51;;;;;;;0.25;0.20;;;;;;;;;;1873474;75;26245;-49
2022/07/10 09:09:19;;;;;;;0.10;0.10;;;;;;;;;;1875960;76;26275;-50
2022/07/10 09:14:27;;;;;;;7.60;0.30;;;;;;;;;;1903357;73;27434;-47
2022/07/10 09:16:55;;;;;;;0.15;0.10;;;;;;;;;;1882688;75;26295;-49
2022/07/10 09:19:23;;;;;;;1.80;0.17;;;;;;;;;;1876831;75;26778;-49
2022/07/10 09:21:52;;;;;;;1.07;0.10;;;;;;;;;;1879362;75;26258;-50
2022/07/10 09:24:19;;;;;;;1.75;0.17;;;;;;;;;;1880917;75;26320;-51
2022/07/10 09:27:03;;;;;;;0.75;0.40;;;;;;;;;;1875004;75;26763;-47
2022/07/10 09:29:31;;;;;;;1.75;0.10;;;;;;;;;;1870845;75;26860;-50
2022/07/10 09:32:02;;;;;;;1.40;0.17;;;;;;;;;;1876079;75;26395;-51
2022/07/10 09:34:46;;;;;;;4.80;0.33;;;;;;;;;;1863563;76;26264;-50
2022/07/10 09:37:30;;;;;;;3.67;0.20;;;;;;;;;;1848746;76;26330;-50
2022/07/10 09:39:56;;;;;;;0.15;0.15;;;;;;;;;;1843151;76;26793;-49
2022/07/10 09:42:34;;;;;;;0.10;0.10;;;;;;;;;;1849187;76;26819;-48
2022/07/10 09:45:12;;;;;;;0.15;0.15;;;;;;;;;;1849528;76;26321;-48
2022/07/10 09:47:40;;;;;;;0.20;0.20;;;;;;;;;;1854812;76;26730;-48
2022/07/10 09:50:24;;;;;;;0.10;0.10;;;;;;;;;;1851583;76;26255;-49
2022/07/10 09:52:53;;;;;;;0.20;0.20;;;;;;;;;;1855078;76;26275;-50
2022/07/10 09:55:21;;;;;;;0.55;0.25;;;;;;;;;;1850870;76;26774;-49
2022/07/10 09:57:53;;;;;;;0.10;0.10;;;;;;;;;;1857755;76;26257;-49
2022/07/10 10:00:22;;;;;;;1.70;0.20;;;;;;;;;;1850651;76;26289;-52
2022/07/10 10:02:50;;;;;;;2.45;0.20;;;;;;;;;;1854551;76;26284;-49
2022/07/10 10:05:17;;;;;;;1.95;0.23;;;;;;;;;;1849355;76;26744;-49
2022/07/10 10:07:46;;;;;;;0.20;0.20;;;;;;;;;;1835480;76;26262;-49
2022/07/10 10:10:13;;;;;;;2.37;0.30;;;;;;;;;;1850532;76;26893;-50
2022/07/10 10:12:42;;;;;;;1.55;0.20;;;;;;;;;;1840323;76;26323;-55
2022/07/10 10:15:11;;;;;;;2.65;0.30;;;;;;;;;;1846996;76;26260;-51
2022/07/10 10:17:40;;;;;;;1.65;0.30;;;;;;;;;;1852413;76;26558;-51
2022/07/10 10:22:55;;;;;;;2.42;0.30;;;;;;;;;;1837413;76;26732;-49
2022/07/10 10:25:24;;;;;;;3.30;0.30;;;;;;;;;;1825647;76;26266;-52
2022/07/10 10:27:51;;;;;;;0.98;0.20;;;;;;;;;;1851991;76;26279;-50
2022/07/10 10:30:18;;;;;;;0.20;0.10;;;;;;;;;;1843572;76;26853;-50
2022/07/10 10:32:46;;;;;;;0.47;0.10;;;;;;;;;;1837241;76;26346;-52
2022/07/10 10:35:15;;;;;;;0.20;0.20;;;;;;;;;;1839911;76;26322;-50
2022/07/10 10:37:44;;;;;;;1.22;0.20;;;;;;;;;;1830940;76;26442;-50
2022/07/10 10:40:12;;;;;;;1.45;0.10;;;;;;;;;;1838859;76;26760;-49
2022/07/10 10:42:42;;;;;;;1.25;0.20;;;;;;;;;;1851232;76;26724;-51
2022/07/10 10:45:27;;;;;;;2.10;0.30;;;;;;;;;;1853789;76;26706;-50
2022/07/10 10:48:11;;;;;;;0.25;0.10;;;;;;;;;;1859602;76;26222;-50
2022/07/10 10:50:41;;;;;;;7.17;0.30;;;;;;;;;;1856855;76;26818;-50
2022/07/10 10:53:15;;;;;;;1.70;0.25;;;;;;;;;;1846475;76;26291;-50
2022/07/10 10:56:03;;;;;;;1.27;0.20;;;;;;;;;;1846251;76;27484;-52
2022/07/10 10:58:37;;;;;;;0.10;0.10;;;;;;;;;;1850419;76;27203;-52
2022/07/10 11:01:25;;;;;;;0.10;0.10;;;;;;;;;;1853695;76;26260;-50
2022/07/10 11:04:06;;;;;;;0.82;0.10;;;;;;;;;;1840650;76;26758;-51
2022/07/10 11:06:41;;;;;;;0.65;0.20;;;;;;;;;;1849344;76;26357;-51
2022/07/10 11:09:28;;;;;;;0.47;0.10;;;;;;;;;;1854664;76;26845;-49
2022/07/10 11:12:03;;;;;;;5.37;0.40;;;;;;;;;;1843722;76;26342;-51
2022/07/10 11:14:32;;;;;;;0.85;0.20;;;;;;;;;;1862212;76;26321;-50
2022/07/10 11:17:00;;;;;;;1.30;0.10;;;;;;;;;;1863348;76;26273;-49
2022/07/10 11:19:28;;;;;;;1.27;0.20;;;;;;;;;;1862635;76;26868;-51
2022/07/10 11:22:09;;;;;;;0.90;0.30;;;;;;;;;;1864402;76;26350;-48
2022/07/10 11:24:41;;;;;;;0.30;0.30;;;;;;;;;;1859303;76;26565;-50
2022/07/10 11:27:16;;;;;;;0.23;0.23;;;;;;;;;;1854093;76;26807;-50
2022/07/10 11:29:47;;;;;;;1.05;0.55;;;;;;;;;;1870166;76;26818;-49
2022/07/10 11:32:14;;;;;;;0.70;0.20;;;;;;;;;;1857659;75;26997;-50
2022/07/10 11:34:41;;;;;;;3.10;0.37;;;;;;;;;;1850652;76;26650;-49
2022/07/10 11:37:17;;;;;;;1.22;0.20;;;;;;;;;;1850318;76;26254;-48
2022/07/10 11:39:45;;;;;;;0.30;0.30;;;;;;;;;;1850991;76;26583;-49
2022/07/10 11:42:12;;;;;;;0.13;0.13;;;;;;;;;;1853212;76;26307;-49
2022/07/10 11:44:39;;;;;;;0.20;0.20;;;;;;;;;;1847389;76;26816;-50
2022/07/10 11:47:07;;;;;;;0.80;0.30;;;;;;;;;;1848756;76;27478;-49
2022/07/10 11:49:35;;;;;;;1.55;0.23;;;;;;;;;;1842034;76;26228;-49
2022/07/10 11:52:03;;;;;;;0.72;0.30;;;;;;;;;;1839360;76;26326;-52
2022/07/10 11:54:31;;;;;;;0.45;0.30;;;;;;;;;;1849284;76;26280;-51
2022/07/10 11:57:00;;;;;;;0.57;0.23;;;;;;;;;;1842645;76;26325;-51
2022/07/10 11:59:28;;;;;;;0.20;0.20;;;;;;;;;;1842679;76;26300;-55
2022/07/10 12:01:56;;;;;;;0.72;0.20;;;;;;;;;;1846294;76;26268;-53
2022/07/10 12:04:26;;;;;;;0.30;0.20;;;;;;;;;;1848498;76;26199;-53
2022/07/10 12:06:53;;;;;;;1.07;0.20;;;;;;;;;;1844557;76;26292;-48
2022/07/10 12:09:22;;;;;;;0.20;0.15;;;;;;;;;;1847896;76;26688;-50
2022/07/10 12:12:03;;;;;;;0.20;0.20;;;;;;;;;;1842904;76;26871;-50
2022/07/10 12:14:30;;;;;;;0.10;0.10;;;;;;;;;;1847005;76;26309;-52
2022/07/10 12:16:58;;;;;;;0.10;0.10;;;;;;;;;;1844427;76;26707;-51
2022/07/10 12:19:34;;;;;;;1.07;0.37;;;;;;;;;;1849533;76;26282;-49
2022/07/10 12:21:59;;;;;;;0.23;0.23;;;;;;;;;;1857017;76;26357;-50
2022/07/10 12:24:27;;;;;;;0.20;0.20;;;;;;;;;;1853911;76;26264;-53
2022/07/10 12:26:58;;;;;;;0.20;0.20;;;;;;;;;;1870699;76;26740;-51
2022/07/10 12:29:26;;;;;;;0.08;0.08;;;;;;;;;;1857443;76;26759;-49
2022/07/10 12:31:57;;;;;;;0.25;0.25;;;;;;;;;;1848123;76;26676;-49
2022/07/10 12:34:35;;;;;;;0.25;0.25;;;;;;;;;;1848297;76;26296;-50
2022/07/10 12:37:09;;;;;;;0.17;0.17;;;;;;;;;;1808612;78;26338;-49
2022/07/10 12:39:38;;;;;;;0.62;0.23;;;;;;;;;;1844489;76;26540;-52
2022/07/10 12:42:07;;;;;;;0.65;0.13;;;;;;;;;;1836028;76;27351;-49
2022/07/10 12:44:36;;;;;;;1.17;0.40;;;;;;;;;;1847325;76;26273;-51
2022/07/10 12:47:08;;;;;;;0.35;0.20;;;;;;;;;;1849873;76;26914;-53
2022/07/10 12:49:34;;;;;;;0.35;0.20;;;;;;;;;;1778459;79;26660;-50
2022/07/10 12:52:02;;;;;;;0.53;0.37;;;;;;;;;;1800161;79;26304;-48
2022/07/10 12:54:35;;;;;;;0.13;0.13;;;;;;;;;;1813259;79;26275;-50
2022/07/10 12:57:06;;;;;;;0.30;0.30;;;;;;;;;;1787293;79;26254;-49
2022/07/10 12:59:37;;;;;;;0.33;0.30;;;;;;;;;;1789445;79;26623;-49
2022/07/10 13:04:55;;;;;;;0.75;0.40;;;;;;;;;;1896522;74;28194;-50
2022/07/10 13:07:33;;;;;;;1.72;0.20;;;;;;;;;;1865717;75;26351;-52
2022/07/10 13:10:01;;;;;;;0.60;0.30;;;;;;;;;;1872839;76;26298;-54
2022/07/10 13:12:28;;;;;;;2.08;0.40;;;;;;;;;;1872842;75;26355;-49
2022/07/10 13:14:55;;;;;;;1.75;0.28;;;;;;;;;;1872066;75;26206;-50
2022/07/10 13:17:23;;;;;;;0.30;0.30;;;;;;;;;;1874560;75;26327;-49
2022/07/10 13:19:51;;;;;;;1.65;0.13;;;;;;;;;;1861780;75;26276;-49
2022/07/10 13:22:18;;;;;;;2.47;0.30;;;;;;;;;;1860631;75;26356;-50
2022/07/10 13:24:46;;;;;;;0.80;0.28;;;;;;;;;;1863371;75;26979;-49
2022/07/10 13:27:13;;;;;;;1.22;0.20;;;;;;;;;;1875517;75;26834;-48
2022/07/10 13:29:41;;;;;;;0.37;0.35;;;;;;;;;;1862797;75;26287;-51
2022/07/10 13:32:09;;;;;;;0.20;0.20;;;;;;;;;;1874770;75;26726;-52
2022/07/10 13:34:36;;;;;;;0.17;0.17;;;;;;;;;;1860882;76;26684;-49
2022/07/10 13:37:04;;;;;;;0.20;0.20;;;;;;;;;;1864270;76;26824;-50
2022/07/10 13:39:31;;;;;;;0.20;0.20;;;;;;;;;;1855856;76;26277;-49
2022/07/10 13:41:58;;;;;;;1.90;0.23;;;;;;;;;;1868144;76;26395;-54
2022/07/10 13:44:25;;;;;;;0.20;0.20;;;;;;;;;;1858597;76;26294;-53
2022/07/10 13:46:53;;;;;;;1.20;0.20;;;;;;;;;;1864725;76;26253;-54
2022/07/10 13:49:20;;;;;;;0.65;0.20;;;;;;;;;;1870342;76;26330;-52
2022/07/10 13:51:47;;;;;;;0.20;0.20;;;;;;;;;;1859186;77;26351;-51
2022/07/10 13:54:14;;;;;;;0.30;0.30;;;;;;;;;;1863935;76;26258;-51
2022/07/10 13:56:43;;;;;;;0.72;0.30;;;;;;;;;;1855703;76;26271;-48
2022/07/10 13:59:10;;;;;;;0.20;0.20;;;;;;;;;;1863359;76;26339;-48
2022/07/10 14:01:37;;;;;;;0.28;0.20;;;;;;;;;;1867325;76;26854;-51
2022/07/10 14:04:05;;;;;;;0.20;0.20;;;;;;;;;;1863641;76;26247;-49
2022/07/10 14:06:32;;;;;;;0.20;0.20;;;;;;;;;;1820640;77;26715;-50
2022/07/10 14:09:00;;;;;;;0.30;0.30;;;;;;;;;;1806085;78;26356;-51
2022/07/10 14:11:27;;;;;;;0.20;0.20;;;;;;;;;;1791258;79;26397;-53
2022/07/10 14:13:54;;;;;;;0.15;0.15;;;;;;;;;;1780511;79;26348;-48
2022/07/10 14:16:21;;;;;;;0.10;0.10;;;;;;;;;;1801237;78;26337;-48
2022/07/10 14:18:49;;;;;;;0.10;0.10;;;;;;;;;;1821967;78;26273;-48
2022/07/10 14:21:16;;;;;;;0.30;0.30;;;;;;;;;;1822408;78;26261;-51
2022/07/10 14:23:43;;;;;;;0.20;0.20;;;;;;;;;;1821668;78;26342;-49
2022/07/10 14:26:12;;;;;;;0.20;0.20;;;;;;;;;;1833252;78;26278;-49
2022/07/10 14:28:39;;;;;;;0.20;0.20;;;;;;;;;;1820440;77;26318;-49
2022/07/10 14:31:07;;;;;;;0.13;0.13;;;;;;;;;;1821310;78;26328;-49
2022/07/10 14:33:35;;;;;;;0.20;0.20;;;;;;;;;;1778549;79;26363;-51
2022/07/10 14:36:03;;;;;;;0.30;0.30;;;;;;;;;;1821308;78;26790;-50
2022/07/10 14:38:31;;;;;;;0.20;0.20;;;;;;;;;;1815781;77;26339;-49
2022/07/10 14:40:59;;;;;;;0.45;0.20;;;;;;;;;;1825296;78;26324;-51
2022/07/10 14:43:27;;;;;;;0.20;0.20;;;;;;;;;;1823184;78;26874;-50
2022/07/10 14:45:55;;;;;;;0.45;0.37;;;;;;;;;;1819152;78;26362;-50
2022/07/10 14:48:22;;;;;;;0.10;0.10;;;;;;;;;;1819996;78;26367;-51
2022/07/10 14:50:49;;;;;;;0.28;0.28;;;;;;;;;;1805645;78;26365;-50
2022/07/10 14:53:17;;;;;;;0.23;0.23;;;;;;;;;;1804440;79;26303;-51
2022/07/10 14:55:44;;;;;;;0.20;0.20;;;;;;;;;;1805067;79;26346;-51
2022/07/10 14:58:11;;;;;;;0.10;0.10;;;;;;;;;;1811799;79;26292;-49
2022/07/10 15:00:38;;;;;;;0.10;0.10;;;;;;;;;;1799632;79;26330;-53
2022/07/10 15:03:06;;;;;;;0.10;0.10;;;;;;;;;;1804839;78;26737;-50
2022/07/10 15:05:36;;;;;;;0.10;0.10;;;;;;;;;;1796748;79;26308;-50